sensor_id;sensor_type;location;lat;lon;timestamp;pressure;altitude;pressure_sealevel;temperature;humidity
5062;BME280;2351;50.812;12.872;2023-03-13T00:01:20;97207.16;;;6.12;100.00
5062;BME280;2351;50.812;12.872;2023-03-13T00:03:53;97211.97;;;6.07;100.00
5062;BME280;2351;50.812;12.872;2023-03-13T00:06:29;97216.13;;;6.09;100.00
5062;BME280;2351;50.812;12.872;2023-03-13T00:09:04;97209.56;;;6.03;100.00
5062;BME280;2351;50.812;12.872;2023-03-13T00:11:36;97208.13;;;6.11;100.00
5062;BME280;2351;50.812;12.872;2023-03-13T00:14:08;97208.00;;;6.12;100.00
5062;BME280;2351;50.812;12.872;2023-03-13T00:16:40;97205.38;;;6.12;100.00
5062;BME280;2351;50.812;12.872;2023-03-13T00:19:11;97200.00;;;6.14;100.00
5062;BME280;2351;50.812;12.872;2023-03-13T00:21:44;97199.75;;;6.17;100.00
5062;BME280;2351;50.812;12.872;2023-03-13T00:24:16;97198.56;;;6.10;100.00
5062;BME280;2351;50.812;12.872;2023-03-13T00:26:48;97195.13;;;6.09;100.00
5062;BME280;2351;50.812;12.872;2023-03-13T00:29:20;97193.91;;;6.02;100.00
5062;BME280;2351;50.812;12.872;2023-03-13T00:31:51;97205.28;;;6.02;100.00
5062;BME280;2351;50.812;12.872;2023-03-13T00:34:23;97194.97;;;5.99;100.00
5062;BME280;2351;50.812;12.872;2023-03-13T00:36:58;97185.44;;;5.98;100.00
5062;BME280;2351;50.812;12.872;2023-03-13T00:39:29;97190.34;;;6.03;100.00
5062;BME280;2351;50.812;12.872;2023-03-13T00:42:01;97185.22;;;6.01;100.00
5062;BME280;2351;50.812;12.872;2023-03-13T00:44:34;97187.84;;;6.01;100.00
5062;BME280;2351;50.812;12.872;2023-03-13T00:47:06;97187.94;;;6.00;100.00
5062;BME280;2351;50.812;12.872;2023-03-13T00:49:37;97181.25;;;6.07;100.00
5062;BME280;2351;50.812;12.872;2023-03-13T00:52:10;97175.88;;;5.97;100.00
5062;BME280;2351;50.812;12.872;2023-03-13T00:54:42;97175.88;;;5.97;100.00
5062;BME280;2351;50.812;12.872;2023-03-13T00:57:14;97185.22;;;6.01;100.00
5062;BME280;2351;50.812;12.872;2023-03-13T00:59:45;97172.09;;;6.01;100.00
5062;BME280;2351;50.812;12.872;2023-03-13T01:02:17;97174.72;;;6.01;100.00
5062;BME280;2351;50.812;12.872;2023-03-13T01:04:49;97168.50;;;6.02;100.00
5062;BME280;2351;50.812;12.872;2023-03-13T01:07:24;97163.34;;;6.01;100.00
5062;BME280;2351;50.812;12.872;2023-03-13T01:10:00;97163.25;;;6.02;100.00
5062;BME280;2351;50.812;12.872;2023-03-13T01:12:32;97166.69;;;6.03;100.00
5062;BME280;2351;50.812;12.872;2023-03-13T01:15:04;97159.66;;;6.03;100.00
5062;BME280;2351;50.812;12.872;2023-03-13T01:17:36;97166.69;;;6.03;100.00
5062;BME280;2351;50.812;12.872;2023-03-13T01:20:09;97173.03;;;6.00;100.00
5062;BME280;2351;50.812;12.872;2023-03-13T01:22:42;97166.09;;;5.99;100.00
5062;BME280;2351;50.812;12.872;2023-03-13T01:25:14;97162.75;;;5.97;100.00
5062;BME280;2351;50.812;12.872;2023-03-13T01:27:47;97159.25;;;5.97;100.00
5062;BME280;2351;50.812;12.872;2023-03-13T01:30:18;97158.44;;;5.96;100.00
5062;BME280;2351;50.812;12.872;2023-03-13T01:32:50;97153.31;;;5.95;100.00
5062;BME280;2351;50.812;12.872;2023-03-13T01:35:22;97159.25;;;5.97;100.00
5062;BME280;2351;50.812;12.872;2023-03-13T01:37:55;97152.22;;;5.97;100.00
5062;BME280;2351;50.812;12.872;2023-03-13T01:40:26;97159.41;;;5.95;100.00
5062;BME280;2351;50.812;12.872;2023-03-13T01:42:59;97153.06;;;5.98;100.00
5062;BME280;2351;50.812;12.872;2023-03-13T01:45:53;97153.06;;;5.98;100.00
5062;BME280;2351;50.812;12.872;2023-03-13T01:48:35;97136.72;;;5.94;100.00
5062;BME280;2351;50.812;12.872;2023-03-13T01:51:11;97137.91;;;5.90;100.00
5062;BME280;2351;50.812;12.872;2023-03-13T01:53:48;97128.38;;;5.89;100.00
5062;BME280;2351;50.812;12.872;2023-03-13T01:56:23;97121.69;;;5.85;100.00
5062;BME280;2351;50.812;12.872;2023-03-13T01:58:58;97121.56;;;5.86;100.00
5062;BME280;2351;50.812;12.872;2023-03-13T02:01:30;97128.50;;;5.87;100.00
5062;BME280;2351;50.812;12.872;2023-03-13T02:04:04;97127.41;;;5.90;100.00
5062;BME280;2351;50.812;12.872;2023-03-13T02:06:40;97127.16;;;5.93;100.00
5062;BME280;2351;50.812;12.872;2023-03-13T02:09:18;97128.47;;;5.99;100.00
5062;BME280;2351;50.812;12.872;2023-03-13T02:11:54;97127.63;;;5.98;100.00
5062;BME280;2351;50.812;12.872;2023-03-13T02:14:30;97117.13;;;5.98;100.00
5062;BME280;2351;50.812;12.872;2023-03-13T02:17:04;97117.38;;;5.95;100.00
5062;BME280;2351;50.812;12.872;2023-03-13T02:19:40;97116.41;;;5.96;100.00
5062;BME280;2351;50.812;12.872;2023-03-13T02:22:19;97114.03;;;5.93;100.00
5062;BME280;2351;50.812;12.872;2023-03-13T02:24:58;97110.44;;;5.94;100.00
5062;BME280;2351;50.812;12.872;2023-03-13T02:27:34;97113.66;;;5.98;100.00
5062;BME280;2351;50.812;12.872;2023-03-13T02:30:06;97104.38;;;5.94;100.00
5062;BME280;2351;50.812;12.872;2023-03-13T02:32:40;97098.16;;;5.95;100.00
5062;BME280;2351;50.812;12.872;2023-03-13T02:35:14;97093.50;;;5.98;100.00
5062;BME280;2351;50.812;12.872;2023-03-13T02:37:50;97085.13;;;5.93;100.00
5062;BME280;2351;50.812;12.872;2023-03-13T02:40:26;97085.72;;;5.97;100.00
5062;BME280;2351;50.812;12.872;2023-03-13T02:43:06;97087.16;;;6.01;100.00
5062;BME280;2351;50.812;12.872;2023-03-13T02:45:39;97084.66;;;5.99;100.00
5062;BME280;2351;50.812;12.872;2023-03-13T02:48:11;97084.44;;;6.02;100.00
5062;BME280;2351;50.812;12.872;2023-03-13T02:50:42;97084.75;;;6.09;100.00
5062;BME280;2351;50.812;12.872;2023-03-13T02:53:14;97073.75;;;6.15;100.00
5062;BME280;2351;50.812;12.872;2023-03-13T02:55:46;97074.34;;;6.19;100.00
5062;BME280;2351;50.812;12.872;2023-03-13T02:58:19;97074.09;;;6.22;100.00
5062;BME280;2351;50.812;12.872;2023-03-13T03:00:51;97063.56;;;6.22;100.00
5062;BME280;2351;50.812;12.872;2023-03-13T03:03:23;97063.56;;;6.22;100.00
5062;BME280;2351;50.812;12.872;2023-03-13T03:05:54;97057.47;;;6.22;100.00
5062;BME280;2351;50.812;12.872;2023-03-13T03:08:26;97050.63;;;6.30;100.00
5062;BME280;2351;50.812;12.872;2023-03-13T03:10:58;97053.38;;;6.29;100.00
5062;BME280;2351;50.812;12.872;2023-03-13T03:13:31;97048.53;;;6.24;100.00
5062;BME280;2351;50.812;12.872;2023-03-13T03:16:06;97041.59;;;6.23;100.00
5062;BME280;2351;50.812;12.872;2023-03-13T03:18:38;97040.50;;;6.26;100.00
5062;BME280;2351;50.812;12.872;2023-03-13T03:21:10;97036.09;;;6.26;100.00
5062;BME280;2351;50.812;12.872;2023-03-13T03:23:42;97036.09;;;6.26;100.00
5062;BME280;2351;50.812;12.872;2023-03-13T03:26:13;97038.00;;;6.24;100.00
5062;BME280;2351;50.812;12.872;2023-03-13T03:28:47;97037.31;;;6.22;100.00
5062;BME280;2351;50.812;12.872;2023-03-13T03:31:18;97033.81;;;6.22;100.00
5062;BME280;2351;50.812;12.872;2023-03-13T03:33:50;97025.38;;;6.18;100.00
5062;BME280;2351;50.812;12.872;2023-03-13T03:36:22;97015.97;;;6.15;100.00
5062;BME280;2351;50.812;12.872;2023-03-13T03:38:54;97015.00;;;6.16;100.00
5062;BME280;2351;50.812;12.872;2023-03-13T03:41:26;97003.53;;;6.17;100.00
5062;BME280;2351;50.812;12.872;2023-03-13T03:43:59;97002.69;;;6.17;100.00
5062;BME280;2351;50.812;12.872;2023-03-13T03:46:30;96992.19;;;6.17;100.00
5062;BME280;2351;50.812;12.872;2023-03-13T03:49:02;96986.91;;;6.17;100.00
5062;BME280;2351;50.812;12.872;2023-03-13T03:51:34;96982.63;;;6.16;100.00
5062;BME280;2351;50.812;12.872;2023-03-13T03:54:06;96979.19;;;6.15;100.00
5062;BME280;2351;50.812;12.872;2023-03-13T03:56:37;96981.22;;;6.12;100.00
5062;BME280;2351;50.812;12.872;2023-03-13T03:59:10;96984.78;;;6.11;100.00
5062;BME280;2351;50.812;12.872;2023-03-13T04:01:42;96980.50;;;6.10;100.00
5062;BME280;2351;50.812;12.872;2023-03-13T04:04:14;96977.50;;;6.14;100.00
5062;BME280;2351;50.812;12.872;2023-03-13T04:06:45;96965.75;;;6.18;100.00
5062;BME280;2351;50.812;12.872;2023-03-13T04:09:17;96962.06;;;6.21;100.00
5062;BME280;2351;50.812;12.872;2023-03-13T04:11:49;96962.06;;;6.21;100.00
5062;BME280;2351;50.812;12.872;2023-03-13T04:14:22;96953.91;;;6.24;100.00
5062;BME280;2351;50.812;12.872;2023-03-13T04:16:53;96957.25;;;6.26;100.00
5062;BME280;2351;50.812;12.872;2023-03-13T04:19:25;96951.03;;;6.27;100.00
5062;BME280;2351;50.812;12.872;2023-03-13T04:21:57;96945.78;;;6.27;100.00
5062;BME280;2351;50.812;12.872;2023-03-13T04:24:28;96937.34;;;6.33;100.00
5062;BME280;2351;50.812;12.872;2023-03-13T04:27:00;96932.69;;;6.37;100.00
5062;BME280;2351;50.812;12.872;2023-03-13T04:29:34;96927.56;;;6.36;100.00
5062;BME280;2351;50.812;12.872;2023-03-13T04:32:06;96908.63;;;6.42;100.00
5062;BME280;2351;50.812;12.872;2023-03-13T04:34:38;96906.19;;;6.50;100.00
5062;BME280;2351;50.812;12.872;2023-03-13T04:37:09;96901.50;;;6.54;100.00
5062;BME280;2351;50.812;12.872;2023-03-13T04:39:41;96890.06;;;6.65;100.00
5062;BME280;2351;50.812;12.872;2023-03-13T04:42:13;96891.84;;;6.74;100.00
5062;BME280;2351;50.812;12.872;2023-03-13T04:44:46;96879.84;;;6.81;100.00
5062;BME280;2351;50.812;12.872;2023-03-13T04:47:18;96880.53;;;6.83;100.00
5062;BME280;2351;50.812;12.872;2023-03-13T04:49:49;96866.72;;;6.91;100.00
5062;BME280;2351;50.812;12.872;2023-03-13T04:52:21;96874.63;;;7.01;100.00
5062;BME280;2351;50.812;12.872;2023-03-13T04:54:53;96874.63;;;7.01;100.00
5062;BME280;2351;50.812;12.872;2023-03-13T04:57:24;96865.91;;;7.00;100.00
5062;BME280;2351;50.812;12.872;2023-03-13T04:59:57;96859.41;;;7.04;100.00
5062;BME280;2351;50.812;12.872;2023-03-13T05:02:29;96841.41;;;7.09;100.00
5062;BME280;2351;50.812;12.872;2023-03-13T05:05:01;96835.16;;;7.11;100.00
5062;BME280;2351;50.812;12.872;2023-03-13T05:07:32;96832.53;;;7.11;100.00
5062;BME280;2351;50.812;12.872;2023-03-13T05:10:04;96825.63;;;7.09;100.00
5062;BME280;2351;50.812;12.872;2023-03-13T05:12:36;96817.59;;;7.11;100.00
5062;BME280;2351;50.812;12.872;2023-03-13T05:15:10;96815.09;;;7.09;100.00
5062;BME280;2351;50.812;12.872;2023-03-13T05:17:42;96814.38;;;7.17;99.13
5062;BME280;2351;50.812;12.872;2023-03-13T05:20:14;96806.53;;;7.27;97.47
5062;BME280;2351;50.812;12.872;2023-03-13T05:22:45;96800.13;;;7.30;98.00
5062;BME280;2351;50.812;12.872;2023-03-13T05:25:17;96804.97;;;7.24;98.30
5062;BME280;2351;50.812;12.872;2023-03-13T05:27:49;96796.38;;;7.22;98.36
5062;BME280;2351;50.812;12.872;2023-03-13T05:30:22;96789.88;;;7.27;98.68
5062;BME280;2351;50.812;12.872;2023-03-13T05:32:54;96782.41;;;7.32;97.59
5062;BME280;2351;50.812;12.872;2023-03-13T05:35:25;96797.66;;;7.28;98.29
5062;BME280;2351;50.812;12.872;2023-03-13T05:37:57;96807.63;;;7.24;98.48
5062;BME280;2351;50.812;12.872;2023-03-13T05:40:29;96793.91;;;7.31;97.80
5062;BME280;2351;50.812;12.872;2023-03-13T05:43:00;96790.03;;;7.35;97.51
5062;BME280;2351;50.812;12.872;2023-03-13T05:45:34;96791.81;;;7.34;97.54
5062;BME280;2351;50.812;12.872;2023-03-13T05:48:06;96786.13;;;7.29;98.01
5062;BME280;2351;50.812;12.872;2023-03-13T05:50:37;96776.72;;;7.36;97.55
5062;BME280;2351;50.812;12.872;2023-03-13T05:53:09;96775.47;;;7.41;97.20
5062;BME280;2351;50.812;12.872;2023-03-13T05:55:41;96758.53;;;7.43;97.07
5062;BME280;2351;50.812;12.872;2023-03-13T05:58:13;96750.81;;;7.42;97.48
5062;BME280;2351;50.812;12.872;2023-03-13T06:00:46;96759.38;;;7.44;97.32
5062;BME280;2351;50.812;12.872;2023-03-13T06:03:18;96753.84;;;7.47;97.19
5062;BME280;2351;50.812;12.872;2023-03-13T06:05:56;96741.38;;;7.49;97.52
5062;BME280;2351;50.812;12.872;2023-03-13T06:08:28;96741.91;;;7.52;97.24
5062;BME280;2351;50.812;12.872;2023-03-13T06:11:00;96756.59;;;7.55;97.41
5062;BME280;2351;50.812;12.872;2023-03-13T06:13:32;96746.22;;;7.53;97.55
5062;BME280;2351;50.812;12.872;2023-03-13T06:16:06;96740.66;;;7.57;97.50
5062;BME280;2351;50.812;12.872;2023-03-13T06:18:38;96727.88;;;7.62;97.98
5062;BME280;2351;50.812;12.872;2023-03-13T06:21:10;96728.97;;;7.69;97.48
5062;BME280;2351;50.812;12.872;2023-03-13T06:23:41;96729.81;;;7.69;97.88
5062;BME280;2351;50.812;12.872;2023-03-13T06:26:13;96719.03;;;7.91;96.79
5062;BME280;2351;50.812;12.872;2023-03-13T06:28:45;96722.38;;;7.93;96.46
5062;BME280;2351;50.812;12.872;2023-03-13T06:31:18;96712.97;;;7.90;97.07
5062;BME280;2351;50.812;12.872;2023-03-13T06:33:52;96710.75;;;7.86;97.80
5062;BME280;2351;50.812;12.872;2023-03-13T06:36:24;96701.84;;;7.87;97.64
5062;BME280;2351;50.812;12.872;2023-03-13T06:38:56;96690.75;;;7.93;98.07
5062;BME280;2351;50.812;12.872;2023-03-13T06:41:27;96693.66;;;7.90;98.58
5062;BME280;2351;50.812;12.872;2023-03-13T06:43:59;96677.56;;;7.93;98.12
5062;BME280;2351;50.812;12.872;2023-03-13T06:46:32;96665.66;;;7.89;99.50
5062;BME280;2351;50.812;12.872;2023-03-13T06:49:04;96661.72;;;8.03;98.50
5062;BME280;2351;50.812;12.872;2023-03-13T06:51:35;96661.31;;;7.97;99.10
5062;BME280;2351;50.812;12.872;2023-03-13T06:54:07;96662.69;;;8.02;99.36
5062;BME280;2351;50.812;12.872;2023-03-13T06:56:39;96652.16;;;8.02;100.00
5062;BME280;2351;50.812;12.872;2023-03-13T06:59:11;96652.63;;;8.15;99.89
5062;BME280;2351;50.812;12.872;2023-03-13T07:01:44;96641.47;;;8.21;100.00
5062;BME280;2351;50.812;12.872;2023-03-13T07:04:15;96635.78;;;8.26;100.00
5062;BME280;2351;50.812;12.872;2023-03-13T07:06:47;96629.22;;;8.30;100.00
5062;BME280;2351;50.812;12.872;2023-03-13T07:09:19;96623.34;;;8.36;100.00
5062;BME280;2351;50.812;12.872;2023-03-13T07:11:50;96610.94;;;8.47;99.82
5062;BME280;2351;50.812;12.872;2023-03-13T07:14:22;96625.34;;;8.52;98.94
5062;BME280;2351;50.812;12.872;2023-03-13T07:16:57;96630.44;;;8.54;99.04
5062;BME280;2351;50.812;12.872;2023-03-13T07:19:29;96625.41;;;8.61;98.66
5062;BME280;2351;50.812;12.872;2023-03-13T07:22:00;96607.59;;;8.63;98.03
5062;BME280;2351;50.812;12.872;2023-03-13T07:24:32;96615.09;;;8.67;97.89
5062;BME280;2351;50.812;12.872;2023-03-13T07:27:04;96605.13;;;8.61;97.98
5062;BME280;2351;50.812;12.872;2023-03-13T07:29:36;96601.59;;;8.70;97.29
5062;BME280;2351;50.812;12.872;2023-03-13T07:32:09;96611.00;;;8.73;97.66
5062;BME280;2351;50.812;12.872;2023-03-13T07:34:40;96598.63;;;8.73;97.45
5062;BME280;2351;50.812;12.872;2023-03-13T07:37:15;96603.59;;;8.77;97.48
5062;BME280;2351;50.812;12.872;2023-03-13T07:39:47;96585.50;;;8.82;97.64
5062;BME280;2351;50.812;12.872;2023-03-13T07:42:18;96597.41;;;8.86;97.07
5062;BME280;2351;50.812;12.872;2023-03-13T07:44:52;96603.50;;;8.86;97.17
5062;BME280;2351;50.812;12.872;2023-03-13T07:47:25;96624.41;;;8.80;97.88
5062;BME280;2351;50.812;12.872;2023-03-13T07:49:57;96610.53;;;8.78;98.44
5062;BME280;2351;50.812;12.872;2023-03-13T07:52:28;96624.09;;;8.83;98.77
5062;BME280;2351;50.812;12.872;2023-03-13T07:55:00;96636.31;;;8.84;99.19
5062;BME280;2351;50.812;12.872;2023-03-13T07:57:32;96641.97;;;8.89;99.43
5062;BME280;2351;50.812;12.872;2023-03-13T08:00:05;96661.31;;;8.98;98.98
5062;BME280;2351;50.812;12.872;2023-03-13T08:02:42;96655.38;;;8.96;98.92
5062;BME280;2351;50.812;12.872;2023-03-13T08:05:13;96666.91;;;8.95;99.24
5062;BME280;2351;50.812;12.872;2023-03-13T08:07:45;96654.91;;;9.00;99.52
5062;BME280;2351;50.812;12.872;2023-03-13T08:10:17;96676.69;;;9.02;99.56
5062;BME280;2351;50.812;12.872;2023-03-13T08:12:48;96658.97;;;9.13;99.85
5062;BME280;2351;50.812;12.872;2023-03-13T08:15:20;96667.22;;;9.18;99.13
5062;BME280;2351;50.812;12.872;2023-03-13T08:17:56;96663.59;;;9.19;99.46
5062;BME280;2351;50.812;12.872;2023-03-13T08:20:28;96657.78;;;9.33;98.93
5062;BME280;2351;50.812;12.872;2023-03-13T08:23:00;96638.75;;;9.30;98.90
5062;BME280;2351;50.812;12.872;2023-03-13T08:25:31;96628.72;;;9.33;99.25
5062;BME280;2351;50.812;12.872;2023-03-13T08:28:03;96616.88;;;9.38;99.66
5062;BME280;2351;50.812;12.872;2023-03-13T08:30:35;96601.53;;;9.49;99.70
5062;BME280;2351;50.812;12.872;2023-03-13T08:33:08;96619.09;;;9.59;99.05
5062;BME280;2351;50.812;12.872;2023-03-13T08:35:40;96614.84;;;9.66;99.53
5062;BME280;2351;50.812;12.872;2023-03-13T08:38:11;96601.78;;;9.64;98.45
5062;BME280;2351;50.812;12.872;2023-03-13T08:40:43;96600.44;;;9.60;98.30
5062;BME280;2351;50.812;12.872;2023-03-13T08:43:15;96599.97;;;9.65;97.86
5062;BME280;2351;50.812;12.872;2023-03-13T08:45:53;96616.28;;;9.52;98.59
5062;BME280;2351;50.812;12.872;2023-03-13T08:48:26;96614.25;;;9.46;98.68
5062;BME280;2351;50.812;12.872;2023-03-13T08:51:02;96617.38;;;9.41;99.26
5062;BME280;2351;50.812;12.872;2023-03-13T08:53:34;96627.09;;;9.41;99.57
5062;BME280;2351;50.812;12.872;2023-03-13T08:56:08;96598.41;;;9.46;100.00
5062;BME280;2351;50.812;12.872;2023-03-13T08:58:40;96612.78;;;9.52;100.00
5062;BME280;2351;50.812;12.872;2023-03-13T09:01:13;96597.47;;;9.63;99.76
5062;BME280;2351;50.812;12.872;2023-03-13T09:03:46;96614.66;;;9.59;100.00
5062;BME280;2351;50.812;12.872;2023-03-13T09:06:18;96611.00;;;9.60;100.00
5062;BME280;2351;50.812;12.872;2023-03-13T09:08:50;96601.28;;;9.61;100.00
5062;BME280;2351;50.812;12.872;2023-03-13T09:11:21;96601.31;;;9.69;100.00
5062;BME280;2351;50.812;12.872;2023-03-13T09:13:54;96599.19;;;9.73;100.00
5062;BME280;2351;50.812;12.872;2023-03-13T09:16:30;96601.19;;;9.79;100.00
5062;BME280;2351;50.812;12.872;2023-03-13T09:19:03;96599.84;;;9.83;100.00
5062;BME280;2351;50.812;12.872;2023-03-13T09:21:35;96596.44;;;9.91;100.00
5062;BME280;2351;50.812;12.872;2023-03-13T09:24:07;96588.34;;;9.92;100.00
5062;BME280;2351;50.812;12.872;2023-03-13T09:26:39;96588.38;;;10.01;100.00
5062;BME280;2351;50.812;12.872;2023-03-13T09:29:10;96574.16;;;10.02;100.00
5062;BME280;2351;50.812;12.872;2023-03-13T09:31:42;96581.28;;;10.09;100.00
5062;BME280;2351;50.812;12.872;2023-03-13T09:34:15;96586.56;;;10.18;100.00
5062;BME280;2351;50.812;12.872;2023-03-13T09:36:47;96580.00;;;10.30;100.00
5062;BME280;2351;50.812;12.872;2023-03-13T09:39:19;96566.31;;;10.43;100.00
5062;BME280;2351;50.812;12.872;2023-03-13T09:41:53;96574.25;;;10.60;100.00
5062;BME280;2351;50.812;12.872;2023-03-13T09:44:32;96576.72;;;10.78;100.00
5062;BME280;2351;50.812;12.872;2023-03-13T09:47:11;96562.97;;;10.91;100.00
5062;BME280;2351;50.812;12.872;2023-03-13T09:49:47;96567.75;;;10.87;99.45
5062;BME280;2351;50.812;12.872;2023-03-13T09:52:22;96569.41;;;10.88;98.80
5062;BME280;2351;50.812;12.872;2023-03-13T09:54:57;96575.22;;;10.92;98.63
5062;BME280;2351;50.812;12.872;2023-03-13T09:57:34;96563.28;;;10.96;98.83
5062;BME280;2351;50.812;12.872;2023-03-13T10:00:09;96572.88;;;11.05;98.76
5062;BME280;2351;50.812;12.872;2023-03-13T10:02:45;96564.41;;;11.18;98.73
5062;BME280;2351;50.812;12.872;2023-03-13T10:05:21;96562.72;;;11.25;98.53
5062;BME280;2351;50.812;12.872;2023-03-13T10:07:55;96571.75;;;11.39;98.13
5062;BME280;2351;50.812;12.872;2023-03-13T10:10:37;96560.97;;;11.49;95.44
5062;BME280;2351;50.812;12.872;2023-03-13T10:13:16;96549.25;;;11.43;95.66
5062;BME280;2351;50.812;12.872;2023-03-13T10:15:51;96564.72;;;11.23;95.83
5062;BME280;2351;50.812;12.872;2023-03-13T10:18:26;96557.94;;;11.21;96.78
5062;BME280;2351;50.812;12.872;2023-03-13T10:21:03;96562.22;;;11.22;96.86
5062;BME280;2351;50.812;12.872;2023-03-13T10:23:45;96569.50;;;11.20;97.22
5062;BME280;2351;50.812;12.872;2023-03-13T10:26:22;96564.72;;;11.23;97.00
5062;BME280;2351;50.812;12.872;2023-03-13T10:28:59;96550.28;;;11.34;96.65
5062;BME280;2351;50.812;12.872;2023-03-13T10:31:32;96546.97;;;11.32;96.30
5062;BME280;2351;50.812;12.872;2023-03-13T10:34:05;96553.75;;;11.26;96.27
5062;BME280;2351;50.812;12.872;2023-03-13T10:36:44;96564.22;;;11.20;96.01
5062;BME280;2351;50.812;12.872;2023-03-13T10:39:17;96570.53;;;11.10;96.63
5062;BME280;2351;50.812;12.872;2023-03-13T10:41:49;96555.81;;;11.08;96.94
5062;BME280;2351;50.812;12.872;2023-03-13T10:44:23;96553.97;;;11.17;97.48
5062;BME280;2351;50.812;12.872;2023-03-13T10:47:01;96529.94;;;11.26;97.41
5062;BME280;2351;50.812;12.872;2023-03-13T10:49:46;96525.44;;;11.35;96.31
5062;BME280;2351;50.812;12.872;2023-03-13T10:52:32;96534.03;;;11.37;96.30
5062;BME280;2351;50.812;12.872;2023-03-13T10:55:05;96527.56;;;11.40;96.41
5062;BME280;2351;50.812;12.872;2023-03-13T10:57:40;96533.69;;;11.40;95.80
5062;BME280;2351;50.812;12.872;2023-03-13T11:00:32;96528.56;;;11.39;96.01
5062;BME280;2351;50.812;12.872;2023-03-13T11:03:06;96548.59;;;11.41;95.40
5062;BME280;2351;50.812;12.872;2023-03-13T11:05:40;96545.94;;;11.41;95.41
5062;BME280;2351;50.812;12.872;2023-03-13T11:08:22;96552.41;;;11.47;95.84
5062;BME280;2351;50.812;12.872;2023-03-13T11:10:57;96548.22;;;11.53;96.03
5062;BME280;2351;50.812;12.872;2023-03-13T11:13:33;96550.03;;;11.52;95.79
5062;BME280;2351;50.812;12.872;2023-03-13T11:16:25;96564.78;;;11.47;95.17
5062;BME280;2351;50.812;12.872;2023-03-13T11:19:14;96568.47;;;11.37;95.31
5062;BME280;2351;50.812;12.872;2023-03-13T11:21:59;96573.13;;;11.35;95.30
5062;BME280;2351;50.812;12.872;2023-03-13T11:24:41;96575.78;;;11.27;95.75
5062;BME280;2351;50.812;12.872;2023-03-13T11:27:21;96566.88;;;11.20;96.15
5062;BME280;2351;50.812;12.872;2023-03-13T11:30:14;96572.34;;;11.18;96.86
5062;BME280;2351;50.812;12.872;2023-03-13T11:32:51;96564.72;;;11.15;97.33
5062;BME280;2351;50.812;12.872;2023-03-13T11:35:36;96563.75;;;11.16;97.70
5062;BME280;2351;50.812;12.872;2023-03-13T11:38:17;96564.84;;;11.30;98.14
5062;BME280;2351;50.812;12.872;2023-03-13T11:40:59;96548.78;;;11.40;98.40
5062;BME280;2351;50.812;12.872;2023-03-13T11:43:48;96542.25;;;11.51;97.77
5062;BME280;2351;50.812;12.872;2023-03-13T11:46:27;96527.84;;;11.53;97.55
5062;BME280;2351;50.812;12.872;2023-03-13T11:52:14;96527.41;;;11.73;96.69
5062;BME280;2351;50.812;12.872;2023-03-13T11:54:57;96517.88;;;11.87;96.46
5062;BME280;2351;50.812;12.872;2023-03-13T11:57:37;96499.44;;;12.02;95.70
5062;BME280;2351;50.812;12.872;2023-03-13T12:00:21;96510.41;;;12.22;94.88
5062;BME280;2351;50.812;12.872;2023-03-13T12:02:58;96490.69;;;12.40;94.75
5062;BME280;2351;50.812;12.872;2023-03-13T12:05:39;96492.94;;;12.66;93.33
5062;BME280;2351;50.812;12.872;2023-03-13T12:08:15;96485.81;;;12.96;93.05
5062;BME280;2351;50.812;12.872;2023-03-13T12:11:00;96482.78;;;13.15;89.68
5062;BME280;2351;50.812;12.872;2023-03-13T12:13:38;96476.63;;;13.29;87.29
5062;BME280;2351;50.812;12.872;2023-03-13T12:16:14;96483.81;;;13.44;87.94
5062;BME280;2351;50.812;12.872;2023-03-13T12:18:47;96479.22;;;13.52;85.02
5062;BME280;2351;50.812;12.872;2023-03-13T12:21:22;96490.34;;;13.63;85.79
5062;BME280;2351;50.812;12.872;2023-03-13T12:24:00;96494.50;;;13.65;85.55
5062;BME280;2351;50.812;12.872;2023-03-13T12:26:40;96494.28;;;13.67;84.99
5062;BME280;2351;50.812;12.872;2023-03-13T12:29:19;96497.09;;;13.80;84.73
5062;BME280;2351;50.812;12.872;2023-03-13T12:31:58;96487.88;;;13.98;84.10
5062;BME280;2351;50.812;12.872;2023-03-13T12:34:38;96466.91;;;14.31;83.46
5062;BME280;2351;50.812;12.872;2023-03-13T12:37:20;96461.91;;;14.22;80.79
5062;BME280;2351;50.812;12.872;2023-03-13T12:39:58;96473.56;;;14.21;81.58
5062;BME280;2351;50.812;12.872;2023-03-13T12:42:43;96463.22;;;14.33;82.04
5062;BME280;2351;50.812;12.872;2023-03-13T12:45:19;96463.06;;;14.41;80.22
5062;BME280;2351;50.812;12.872;2023-03-13T12:48:16;96470.63;;;14.37;80.20
5062;BME280;2351;50.812;12.872;2023-03-13T12:51:01;96464.03;;;14.33;79.50
5062;BME280;2351;50.812;12.872;2023-03-13T12:56:51;96458.63;;;14.20;80.52
5062;BME280;2351;50.812;12.872;2023-03-13T12:59:31;96451.03;;;14.45;80.13
5062;BME280;2351;50.812;12.872;2023-03-13T13:02:14;96446.75;;;14.51;79.03
5062;BME280;2351;50.812;12.872;2023-03-13T13:04:48;96456.19;;;14.75;80.11
5062;BME280;2351;50.812;12.872;2023-03-13T13:07:23;96434.53;;;14.85;77.15
5062;BME280;2351;50.812;12.872;2023-03-13T13:10:03;96447.25;;;14.61;76.59
5062;BME280;2351;50.812;12.872;2023-03-13T13:12:46;96442.38;;;14.36;78.04
5062;BME280;2351;50.812;12.872;2023-03-13T13:15:21;96438.44;;;14.32;78.44
5062;BME280;2351;50.812;12.872;2023-03-13T13:18:02;96443.84;;;14.17;79.13
5062;BME280;2351;50.812;12.872;2023-03-13T13:20:39;96450.31;;;14.08;79.70
5062;BME280;2351;50.812;12.872;2023-03-13T13:23:29;96450.06;;;14.03;80.34
5062;BME280;2351;50.812;12.872;2023-03-13T13:29:52;96444.81;;;13.88;81.65
5062;BME280;2351;50.812;12.872;2023-03-13T13:32:48;96438.72;;;13.94;82.17
5062;BME280;2351;50.812;12.872;2023-03-13T13:35:30;96431.00;;;13.99;81.85
5062;BME280;2351;50.812;12.872;2023-03-13T13:38:29;96442.66;;;13.98;81.42
5062;BME280;2351;50.812;12.872;2023-03-13T13:41:24;96451.41;;;13.92;81.43
5062;BME280;2351;50.812;12.872;2023-03-13T13:44:20;96457.09;;;13.89;81.63
5062;BME280;2351;50.812;12.872;2023-03-13T13:46:53;96457.94;;;13.89;81.48
5062;BME280;2351;50.812;12.872;2023-03-13T13:49:34;96447.97;;;13.98;82.03
5062;BME280;2351;50.812;12.872;2023-03-13T13:58:22;96442.41;;;13.93;80.75
5062;BME280;2351;50.812;12.872;2023-03-13T14:00:58;96429.22;;;13.84;81.18
5062;BME280;2351;50.812;12.872;2023-03-13T14:03:31;96417.72;;;13.99;81.87
5062;BME280;2351;50.812;12.872;2023-03-13T14:06:16;96395.47;;;14.07;81.28
5062;BME280;2351;50.812;12.872;2023-03-13T14:08:52;96397.94;;;14.08;80.92